Time;durP1;ratioP1;P1;durP2;ratioP2;P2;SDS_P1;SDS_P2;PMS_P1;PMS_P2;Temp;Humidity;BMP_temperature;BMP_pressure;BME280_temperature;BME280_humidity;BME280_pressure;Samples;Min_cycle;Max_cycle;Signal;HPM_P1;HPM_P2
2021/12/02 00:01:49;;;;;;;3.63;1.13;;;5.70;99.90;;;;;;5084796;28;20221;-80
2021/12/02 00:04:16;;;;;;;4.90;1.00;;;5.70;99.90;;;;;;5087965;28;20218;-82
2021/12/02 00:06:42;;;;;;;5.80;1.20;;;5.70;99.90;;;;;;5088398;28;20225;-80
2021/12/02 00:09:11;;;;;;;7.23;1.07;;;5.70;99.90;;;;;;5081367;28;20690;-80
2021/12/02 00:11:38;;;;;;;3.17;1.10;;;5.70;99.90;;;;;;5071920;28;20225;-81
2021/12/02 00:14:10;;;;;;;5.53;1.10;;;5.70;99.90;;;;;;5088365;28;20233;-79
2021/12/02 00:16:40;;;;;;;2.73;0.80;;;5.70;99.90;;;;;;5065294;28;20217;-80
2021/12/02 00:21:53;;;;;;;4.67;1.33;;;5.70;99.90;;;;;;5069589;28;20222;-79
2021/12/02 00:24:24;;;;;;;7.13;1.40;;;5.70;99.90;;;;;;5085450;28;20214;-81
2021/12/02 00:26:52;;;;;;;6.57;1.23;;;5.70;99.90;;;;;;5081851;28;20237;-79
2021/12/02 00:29:21;;;;;;;5.40;1.20;;;5.70;99.90;;;;;;5084199;28;20293;-80
2021/12/02 00:31:51;;;;;;;4.13;1.13;;;5.70;99.90;;;;;;5071044;28;20256;-80
2021/12/02 00:34:18;;;;;;;9.13;1.20;;;5.70;99.90;;;;;;5088355;28;20206;-79
2021/12/02 00:36:44;;;;;;;5.33;1.00;;;5.70;99.90;;;;;;5087934;28;20770;-80
2021/12/02 00:39:13;;;;;;;4.77;1.07;;;5.70;99.90;;;;;;5090957;28;20205;-80
2021/12/02 00:41:41;;;;;;;4.77;0.97;;;5.70;99.90;;;;;;5070409;28;20218;-79
2021/12/02 00:44:09;;;;;;;2.63;0.70;;;5.70;99.90;;;;;;5087547;28;20223;-80
2021/12/02 00:46:36;;;;;;;6.80;1.10;;;5.70;99.90;;;;;;5083935;28;20204;-80
2021/12/02 00:49:06;;;;;;;6.77;1.50;;;5.70;99.90;;;;;;5066118;28;20254;-80
2021/12/02 00:51:36;;;;;;;4.47;1.00;;;5.70;99.90;;;;;;5089048;28;20217;-81
2021/12/02 00:54:05;;;;;;;4.63;1.00;;;5.70;99.90;;;;;;5083318;28;20241;-80
2021/12/02 00:56:33;;;;;;;4.97;1.30;;;5.70;99.90;;;;;;5069952;28;21037;-79
2021/12/02 00:59:01;;;;;;;4.10;1.10;;;5.70;99.90;;;;;;5081247;28;20296;-80
2021/12/02 01:01:33;;;;;;;4.93;1.20;;;5.70;99.90;;;;;;5086166;28;20231;-80
2021/12/02 01:04:01;;;;;;;4.13;1.10;;;5.70;99.90;;;;;;5084750;28;20240;-79
2021/12/02 01:06:30;;;;;;;3.83;1.00;;;5.60;99.90;;;;;;5074074;28;20230;-80
2021/12/02 01:08:57;;;;;;;5.23;1.00;;;5.60;99.90;;;;;;5067820;28;20227;-78
2021/12/02 01:11:24;;;;;;;6.27;0.97;;;5.60;99.90;;;;;;5069221;28;20220;-78
2021/12/02 01:13:51;;;;;;;3.83;0.90;;;5.70;99.90;;;;;;5076267;28;20234;-78
2021/12/02 01:16:22;;;;;;;1.93;1.07;;;5.70;99.90;;;;;;5084850;28;20709;-78
2021/12/02 01:18:49;;;;;;;5.53;1.00;;;5.60;99.90;;;;;;5069087;28;20224;-78
2021/12/02 01:21:19;;;;;;;4.60;1.10;;;5.60;99.90;;;;;;5080480;28;20614;-78
2021/12/02 01:23:49;;;;;;;3.93;0.93;;;5.70;99.90;;;;;;5082971;28;20216;-78
2021/12/02 01:26:17;;;;;;;3.13;1.00;;;5.70;99.90;;;;;;5068434;28;20232;-78
2021/12/02 01:28:45;;;;;;;2.43;0.70;;;5.60;99.90;;;;;;5069425;28;20219;-78
2021/12/02 01:31:12;;;;;;;1.37;0.80;;;5.60;99.90;;;;;;5088949;28;20844;-80
2021/12/02 01:33:44;;;;;;;8.20;1.10;;;5.60;99.90;;;;;;5089142;28;20708;-80
2021/12/02 01:36:11;;;;;;;4.57;0.80;;;5.60;99.90;;;;;;5078165;28;20307;-80
2021/12/02 01:38:38;;;;;;;2.70;1.00;;;5.60;99.90;;;;;;5065299;28;20220;-80
2021/12/02 01:41:05;;;;;;;3.93;0.80;;;5.60;99.90;;;;;;5088627;28;20678;-80
2021/12/02 01:43:48;;;;;;;4.23;0.77;;;5.50;99.90;;;;;;5082946;28;20320;-80
2021/12/02 01:46:17;;;;;;;3.57;0.87;;;5.60;99.90;;;;;;5066019;28;20235;-80
2021/12/02 01:48:49;;;;;;;3.53;1.10;;;5.50;99.90;;;;;;5070630;28;20229;-79
2021/12/02 01:51:19;;;;;;;3.70;0.90;;;5.50;99.90;;;;;;5091212;28;20288;-79
2021/12/02 01:53:51;;;;;;;5.27;0.90;;;5.50;99.90;;;;;;5080021;28;20272;-80
2021/12/02 01:56:19;;;;;;;4.50;1.10;;;5.50;99.90;;;;;;5072287;28;20226;-80
2021/12/02 01:58:48;;;;;;;3.87;1.00;;;5.50;99.90;;;;;;5073127;28;20211;-79
2021/12/02 02:01:20;;;;;;;5.93;1.40;;;5.40;99.90;;;;;;5083250;28;20272;-79
2021/12/02 02:03:50;;;;;;;2.63;0.80;;;5.40;99.90;;;;;;5090725;28;20220;-79
2021/12/02 02:06:25;;;;;;;5.17;1.10;;;5.40;99.90;;;;;;5089986;28;20267;-78
2021/12/02 02:08:54;;;;;;;3.83;1.27;;;5.40;99.90;;;;;;5073924;28;20795;-79
2021/12/02 02:11:20;;;;;;;4.10;1.00;;;5.30;99.90;;;;;;5068539;28;20220;-78
2021/12/02 02:13:47;;;;;;;8.47;0.93;;;5.30;99.90;;;;;;5076425;28;20230;-79
2021/12/02 02:16:14;;;;;;;4.10;1.00;;;5.30;99.90;;;;;;5084236;28;20744;-79
2021/12/02 02:18:41;;;;;;;2.57;0.60;;;5.30;99.90;;;;;;5085017;28;20236;-80
2021/12/02 02:21:13;;;;;;;2.87;1.00;;;5.20;99.90;;;;;;5089492;28;20300;-80
2021/12/02 02:23:42;;;;;;;5.00;1.00;;;5.20;99.90;;;;;;5091150;28;20280;-79
2021/12/02 02:26:09;;;;;;;5.80;0.90;;;5.20;99.90;;;;;;5087028;28;20363;-79
2021/12/02 02:28:36;;;;;;;2.27;0.70;;;5.20;99.90;;;;;;5073865;28;20230;-80
2021/12/02 02:31:03;;;;;;;3.90;0.87;;;5.10;99.90;;;;;;5073034;28;20217;-79
2021/12/02 02:33:36;;;;;;;3.87;1.27;;;5.10;99.90;;;;;;5086155;28;20746;-79
2021/12/02 02:36:04;;;;;;;5.17;1.20;;;5.10;99.90;;;;;;5091551;28;20653;-78
2021/12/02 02:38:32;;;;;;;3.83;0.80;;;5.00;99.90;;;;;;5082456;28;20282;-80
2021/12/02 02:41:01;;;;;;;4.90;0.80;;;5.00;99.90;;;;;;5076195;28;20222;-79
2021/12/02 02:43:30;;;;;;;2.87;1.00;;;5.00;99.90;;;;;;5071862;28;20237;-79
2021/12/02 02:45:56;;;;;;;4.40;1.03;;;5.00;99.90;;;;;;5072857;28;20225;-79
2021/12/02 02:48:23;;;;;;;2.93;0.63;;;5.00;99.90;;;;;;5087610;28;20222;-79
2021/12/02 02:50:50;;;;;;;2.43;0.53;;;4.90;99.90;;;;;;5091548;28;20220;-79
2021/12/02 02:53:21;;;;;;;2.33;0.70;;;4.90;99.90;;;;;;5071325;28;20222;-79
2021/12/02 02:55:59;;;;;;;4.60;1.23;;;4.90;99.90;;;;;;5074557;28;20230;-79
2021/12/02 02:58:31;;;;;;;4.37;0.70;;;4.90;99.90;;;;;;5076116;28;20579;-79
2021/12/02 03:01:04;;;;;;;3.23;1.03;;;4.90;99.90;;;;;;5084815;28;20778;-79
2021/12/02 03:03:40;;;;;;;2.30;0.73;;;4.90;99.90;;;;;;5068096;28;20210;-80
2021/12/02 03:06:24;;;;;;;3.90;0.90;;;4.90;99.90;;;;;;5069314;28;20214;-79
2021/12/02 03:08:55;;;;;;;5.70;0.80;;;4.80;99.90;;;;;;5084126;28;20241;-78
2021/12/02 03:11:24;;;;;;;4.07;1.17;;;4.90;99.90;;;;;;5083563;28;20220;-78
2021/12/02 03:13:52;;;;;;;2.73;0.67;;;4.90;99.90;;;;;;5089699;28;20226;-78
2021/12/02 03:16:38;;;;;;;1.27;0.60;;;4.80;99.90;;;;;;5066887;28;20223;-78
2021/12/02 03:19:04;;;;;;;3.60;0.80;;;4.80;99.90;;;;;;5085801;28;20249;-78
2021/12/02 03:21:32;;;;;;;4.33;1.10;;;4.80;99.90;;;;;;5089260;28;20223;-78
2021/12/02 03:24:00;;;;;;;3.80;0.60;;;4.80;99.90;;;;;;5087634;28;20268;-78
2021/12/02 03:26:31;;;;;;;2.93;0.73;;;4.80;99.90;;;;;;5066012;28;20724;-78
2021/12/02 03:28:58;;;;;;;3.43;0.80;;;4.70;99.90;;;;;;5083688;28;20223;-78
2021/12/02 03:31:25;;;;;;;1.13;0.60;;;4.80;99.90;;;;;;5066882;28;20223;-78
2021/12/02 03:33:53;;;;;;;4.60;1.10;;;4.70;99.90;;;;;;5084895;28;20224;-78
2021/12/02 03:36:20;;;;;;;3.53;0.73;;;4.70;99.90;;;;;;5071235;28;20216;-79
2021/12/02 03:38:48;;;;;;;2.90;0.53;;;4.70;99.90;;;;;;5065766;28;20825;-79
2021/12/02 03:41:15;;;;;;;2.77;0.80;;;4.60;99.90;;;;;;5069075;28;20305;-78
2021/12/02 03:43:45;;;;;;;2.77;0.53;;;4.60;99.90;;;;;;5067089;28;20221;-79
2021/12/02 03:46:14;;;;;;;1.83;0.60;;;4.60;99.90;;;;;;5065519;28;20335;-78
2021/12/02 03:48:41;;;;;;;1.30;0.70;;;4.60;99.90;;;;;;5067407;28;20233;-78
2021/12/02 03:51:09;;;;;;;1.73;0.80;;;4.60;99.90;;;;;;5087230;28;20255;-78
2021/12/02 03:53:36;;;;;;;2.20;0.70;;;4.50;99.90;;;;;;5082830;28;20222;-78
2021/12/02 03:56:06;;;;;;;1.23;0.60;;;4.50;99.90;;;;;;5068875;28;20773;-78
2021/12/02 03:58:33;;;;;;;2.60;0.60;;;4.50;99.90;;;;;;5072536;28;20216;-79
2021/12/02 04:01:01;;;;;;;4.17;0.77;;;4.40;99.90;;;;;;5065805;28;20220;-79
2021/12/02 04:03:28;;;;;;;4.87;1.20;;;4.40;99.90;;;;;;5072872;28;20225;-80
2021/12/02 04:05:55;;;;;;;5.53;0.93;;;4.40;99.90;;;;;;5087789;28;20235;-79
2021/12/02 04:08:28;;;;;;;4.27;0.73;;;4.40;99.90;;;;;;5067966;28;20256;-79
2021/12/02 04:11:00;;;;;;;3.33;0.90;;;4.40;99.90;;;;;;5072541;28;20220;-79
2021/12/02 04:13:32;;;;;;;3.23;1.00;;;4.30;99.90;;;;;;5068300;28;20244;-79
2021/12/02 04:16:03;;;;;;;2.60;1.00;;;4.30;99.90;;;;;;5086608;28;20243;-79
2021/12/02 04:18:30;;;;;;;6.63;0.87;;;4.20;99.90;;;;;;5071334;28;20227;-81
2021/12/02 04:20:57;;;;;;;2.33;0.70;;;4.20;99.90;;;;;;5073189;28;20241;-82
2021/12/02 04:23:23;;;;;;;4.57;1.00;;;4.20;99.90;;;;;;5089028;28;20224;-81
2021/12/02 04:25:50;;;;;;;6.13;1.27;;;4.20;99.90;;;;;;5083960;28;20221;-84
2021/12/02 04:28:17;;;;;;;5.43;1.20;;;4.20;99.90;;;;;;5066382;28;20309;-83
2021/12/02 04:30:44;;;;;;;5.87;0.90;;;4.20;99.90;;;;;;5066214;28;20226;-81
2021/12/02 04:33:12;;;;;;;5.80;1.10;;;4.10;99.90;;;;;;5062593;28;20719;-82
2021/12/02 04:35:38;;;;;;;2.70;0.90;;;4.20;99.90;;;;;;5064027;28;20214;-81
2021/12/02 04:38:05;;;;;;;3.93;1.00;;;4.10;99.90;;;;;;5064138;28;20858;-79
2021/12/02 04:40:32;;;;;;;3.23;1.10;;;4.10;99.90;;;;;;5065647;28;20544;-81
2021/12/02 04:42:59;;;;;;;5.93;1.03;;;4.10;99.90;;;;;;5086443;28;20244;-78
2021/12/02 04:45:25;;;;;;;2.70;1.00;;;4.10;99.90;;;;;;5083648;28;20222;-81
2021/12/02 04:47:52;;;;;;;5.43;0.70;;;4.10;99.90;;;;;;5063806;28;20233;-80
2021/12/02 04:50:20;;;;;;;3.20;0.80;;;4.10;99.90;;;;;;5064944;28;20225;-80
2021/12/02 04:52:47;;;;;;;4.07;0.93;;;4.10;99.90;;;;;;5081736;28;20224;-83
2021/12/02 04:55:14;;;;;;;2.40;0.60;;;4.10;99.90;;;;;;5061910;28;20731;-80
2021/12/02 04:57:40;;;;;;;4.23;0.93;;;4.10;99.90;;;;;;5070220;28;20220;-80
2021/12/02 05:00:08;;;;;;;2.70;0.80;;;4.10;99.90;;;;;;5061736;28;20231;-80
2021/12/02 05:02:35;;;;;;;4.60;0.70;;;4.00;99.90;;;;;;5082505;28;20228;-81
2021/12/02 05:05:02;;;;;;;1.50;0.80;;;4.00;99.90;;;;;;5072776;28;20306;-82
2021/12/02 05:07:30;;;;;;;5.00;1.00;;;4.00;99.90;;;;;;5066390;28;20244;-81
2021/12/02 05:09:56;;;;;;;4.27;0.60;;;4.00;99.90;;;;;;5084076;28;20240;-81
2021/12/02 05:12:23;;;;;;;2.27;0.80;;;4.00;99.90;;;;;;5069633;28;20256;-81
2021/12/02 05:14:50;;;;;;;5.00;1.00;;;3.90;99.90;;;;;;5077279;28;20278;-81
2021/12/02 05:17:17;;;;;;;4.30;1.00;;;3.90;99.90;;;;;;5082323;28;20227;-80
2021/12/02 05:19:44;;;;;;;5.07;1.20;;;3.90;99.90;;;;;;5066734;28;20620;-81
2021/12/02 05:22:11;;;;;;;5.20;1.10;;;3.90;99.90;;;;;;5082518;28;20225;-81
2021/12/02 05:24:39;;;;;;;5.10;0.90;;;3.90;99.90;;;;;;5089475;28;20260;-80
2021/12/02 05:27:07;;;;;;;3.73;0.90;;;3.80;99.90;;;;;;5079292;28;20294;-80
2021/12/02 05:29:34;;;;;;;2.60;0.87;;;3.80;99.90;;;;;;5082088;28;20222;-80
2021/12/02 05:32:01;;;;;;;3.80;0.77;;;3.80;99.90;;;;;;5069120;28;20226;-81
2021/12/02 05:34:28;;;;;;;6.43;1.23;;;3.80;99.90;;;;;;5070102;28;20249;-81
2021/12/02 05:36:54;;;;;;;4.37;1.20;;;3.70;99.90;;;;;;5082695;28;20222;-80
2021/12/02 05:39:21;;;;;;;2.90;1.43;;;3.70;99.90;;;;;;5083938;28;20217;-81
2021/12/02 05:41:53;;;;;;;6.97;1.40;;;3.70;99.90;;;;;;5065966;28;20665;-81
2021/12/02 05:44:19;;;;;;;2.57;1.00;;;3.70;99.90;;;;;;5065299;28;20219;-81
2021/12/02 05:46:46;;;;;;;4.20;1.23;;;3.70;99.90;;;;;;5069120;28;20678;-80
2021/12/02 05:49:13;;;;;;;3.17;0.87;;;3.70;99.90;;;;;;5085927;28;20218;-81
2021/12/02 05:51:40;;;;;;;4.33;1.00;;;3.60;99.90;;;;;;5082345;28;20227;-81
2021/12/02 05:54:07;;;;;;;2.87;1.00;;;3.60;99.90;;;;;;5064539;28;20304;-81
2021/12/02 05:56:34;;;;;;;4.17;0.90;;;3.60;99.90;;;;;;5080828;28;20224;-81
2021/12/02 05:59:02;;;;;;;5.27;1.20;;;3.60;99.90;;;;;;5081009;28;20223;-81
2021/12/02 06:01:28;;;;;;;6.40;1.07;;;3.60;99.90;;;;;;5064876;28;20234;-80
2021/12/02 06:03:55;;;;;;;3.93;1.03;;;3.60;99.90;;;;;;5087216;28;20215;-80
2021/12/02 06:06:23;;;;;;;6.33;1.53;;;3.60;99.90;;;;;;5085136;28;20223;-80
2021/12/02 06:08:50;;;;;;;5.57;1.10;;;3.60;99.90;;;;;;5059522;28;20224;-81
2021/12/02 06:11:17;;;;;;;2.37;0.90;;;3.60;99.90;;;;;;5069310;28;20208;-80
2021/12/02 06:13:46;;;;;;;6.20;1.43;;;3.60;99.90;;;;;;5072488;28;20228;-80
2021/12/02 06:16:15;;;;;;;3.93;0.87;;;3.60;99.90;;;;;;5083786;28;20211;-80
2021/12/02 06:18:43;;;;;;;3.60;1.20;;;3.60;99.90;;;;;;5080960;28;20232;-81
2021/12/02 06:21:10;;;;;;;5.37;1.17;;;3.60;99.90;;;;;;5091814;28;20235;-80
2021/12/02 06:23:39;;;;;;;5.83;1.63;;;3.60;99.90;;;;;;5073141;28;20307;-80
2021/12/02 06:26:06;;;;;;;2.90;1.13;;;3.60;99.90;;;;;;5067685;28;20230;-81
2021/12/02 06:28:33;;;;;;;3.93;1.00;;;3.60;99.90;;;;;;5067572;28;20213;-81
2021/12/02 06:31:02;;;;;;;4.93;1.00;;;3.60;99.90;;;;;;5085280;28;20226;-81
2021/12/02 06:33:30;;;;;;;6.77;1.30;;;3.60;99.90;;;;;;5090472;28;20290;-81
2021/12/02 06:35:56;;;;;;;6.37;1.10;;;3.50;99.90;;;;;;5072169;28;20388;-79
2021/12/02 06:38:23;;;;;;;11.77;1.27;;;3.60;99.90;;;;;;5088234;28;20222;-78
2021/12/02 06:40:50;;;;;;;4.43;1.20;;;3.60;99.90;;;;;;5080552;28;20225;-80
2021/12/02 06:43:17;;;;;;;5.17;1.37;;;3.50;99.90;;;;;;5071103;28;20220;-81
2021/12/02 06:45:44;;;;;;;3.70;1.20;;;3.50;99.90;;;;;;5083993;28;20219;-80
2021/12/02 06:48:11;;;;;;;7.50;2.00;;;3.50;99.90;;;;;;5073025;28;20289;-81
2021/12/02 06:50:39;;;;;;;5.67;1.20;;;3.50;99.90;;;;;;5084248;28;20239;-80
2021/12/02 06:53:07;;;;;;;2.70;1.13;;;3.50;99.90;;;;;;5068123;28;20687;-79
2021/12/02 06:55:34;;;;;;;5.40;1.43;;;3.40;99.90;;;;;;5088498;28;20225;-79
2021/12/02 06:58:01;;;;;;;4.97;1.43;;;3.50;99.90;;;;;;5079534;28;20248;-79
2021/12/02 07:00:28;;;;;;;2.50;0.90;;;3.40;99.90;;;;;;5081091;28;20252;-79
2021/12/02 07:02:55;;;;;;;3.97;1.00;;;3.40;99.90;;;;;;5077809;28;20230;-79
2021/12/02 07:05:22;;;;;;;5.70;0.93;;;3.40;99.90;;;;;;5077666;28;20233;-79
2021/12/02 07:07:50;;;;;;;3.27;1.30;;;3.40;99.90;;;;;;5082195;28;20226;-79
2021/12/02 07:10:20;;;;;;;7.43;1.50;;;3.30;99.90;;;;;;5069713;28;20215;-79
2021/12/02 07:12:50;;;;;;;6.17;1.30;;;3.30;99.90;;;;;;5088297;28;20231;-79
2021/12/02 07:15:19;;;;;;;5.67;1.40;;;3.30;99.90;;;;;;5079589;28;20299;-79
2021/12/02 07:17:46;;;;;;;5.40;1.47;;;3.30;99.90;;;;;;5081975;28;21060;-79
2021/12/02 07:20:13;;;;;;;4.37;1.57;;;3.30;99.90;;;;;;5085021;28;20219;-78
2021/12/02 07:22:40;;;;;;;5.97;1.57;;;3.20;99.90;;;;;;5079479;28;20681;-79
2021/12/02 07:25:09;;;;;;;4.80;1.70;;;3.20;99.90;;;;;;5077703;28;20543;-79
2021/12/02 07:27:36;;;;;;;7.33;1.90;;;3.20;99.90;;;;;;5084298;28;20210;-79
2021/12/02 07:30:04;;;;;;;4.27;1.60;;;3.20;99.90;;;;;;5086849;28;20270;-79
2021/12/02 07:32:36;;;;;;;5.93;1.70;;;3.20;99.90;;;;;;5084469;28;20303;-79
2021/12/02 07:35:08;;;;;;;5.63;1.70;;;3.20;99.90;;;;;;5066749;28;20511;-79
2021/12/02 07:37:35;;;;;;;5.03;1.20;;;3.20;99.90;;;;;;5070367;28;20286;-79
2021/12/02 07:40:02;;;;;;;4.17;1.23;;;3.20;99.90;;;;;;5064876;28;20302;-79
2021/12/02 07:42:31;;;;;;;9.20;1.67;;;3.20;99.90;;;;;;5088576;28;20228;-79
2021/12/02 07:44:58;;;;;;;7.57;1.50;;;3.30;99.90;;;;;;5068121;28;20221;-79
2021/12/02 07:47:26;;;;;;;4.20;1.50;;;3.30;99.90;;;;;;5069693;28;20217;-79
2021/12/02 07:49:52;;;;;;;4.87;1.63;;;3.30;99.90;;;;;;5069582;28;20247;-79
2021/12/02 07:52:25;;;;;;;5.20;1.40;;;3.30;99.90;;;;;;5063022;28;20219;-80
2021/12/02 07:54:53;;;;;;;5.57;1.50;;;3.30;99.90;;;;;;5058020;28;20317;-79
2021/12/02 07:57:21;;;;;;;3.80;1.83;;;3.30;99.90;;;;;;5069790;28;20221;-79
2021/12/02 07:59:50;;;;;;;8.53;1.53;;;3.50;99.90;;;;;;5086963;28;20219;-79
2021/12/02 08:02:18;;;;;;;9.00;1.67;;;3.50;99.90;;;;;;5083775;28;20215;-81
2021/12/02 08:04:45;;;;;;;4.90;1.50;;;3.50;99.90;;;;;;5082400;28;20224;-80
2021/12/02 08:07:12;;;;;;;3.57;1.30;;;3.70;99.90;;;;;;5066736;28;20582;-79
2021/12/02 08:09:39;;;;;;;4.30;1.20;;;3.80;99.90;;;;;;5064757;28;20223;-79
2021/12/02 08:12:06;;;;;;;6.07;1.83;;;4.10;99.90;;;;;;5061901;28;20226;-79
2021/12/02 08:14:33;;;;;;;4.50;1.40;;;4.20;99.90;;;;;;5067877;28;20891;-79
2021/12/02 08:17:01;;;;;;;5.07;1.23;;;4.40;99.90;;;;;;5086213;28;20218;-79
2021/12/02 08:19:28;;;;;;;6.17;1.30;;;4.60;99.90;;;;;;5076964;28;20232;-79
2021/12/02 08:21:54;;;;;;;3.27;1.40;;;4.90;99.90;;;;;;5072790;28;20221;-79
2021/12/02 08:24:23;;;;;;;4.87;1.20;;;5.20;99.90;;;;;;5062758;28;20315;-79
2021/12/02 08:26:50;;;;;;;5.63;1.40;;;5.60;99.90;;;;;;5076127;28;20218;-79
2021/12/02 08:29:17;;;;;;;6.70;1.33;;;5.90;99.90;;;;;;5084546;28;20531;-80
2021/12/02 08:31:44;;;;;;;6.33;1.57;;;6.30;99.90;;;;;;5081571;28;20308;-80
2021/12/02 08:34:13;;;;;;;5.13;1.50;;;6.60;99.90;;;;;;5078947;28;20566;-80
2021/12/02 08:36:45;;;;;;;5.60;1.40;;;6.90;99.90;;;;;;5085499;28;20252;-80
2021/12/02 08:39:16;;;;;;;3.50;1.37;;;7.20;99.90;;;;;;5087298;28;20919;-80
2021/12/02 08:41:46;;;;;;;3.50;1.47;;;7.50;99.90;;;;;;5064560;28;20263;-80
2021/12/02 08:44:13;;;;;;;4.00;1.40;;;7.80;99.90;;;;;;5062804;28;20687;-80
2021/12/02 08:46:40;;;;;;;3.00;1.30;;;8.10;99.60;;;;;;5071035;28;20667;-80
2021/12/02 08:49:07;;;;;;;5.83;1.37;;;8.30;99.00;;;;;;5077912;28;20252;-80
2021/12/02 08:51:35;;;;;;;3.77;1.10;;;8.60;99.20;;;;;;5087890;28;20784;-80
2021/12/02 08:54:02;;;;;;;3.60;1.60;;;8.80;98.80;;;;;;5089632;28;20238;-81
2021/12/02 08:56:30;;;;;;;5.27;1.57;;;9.00;98.80;;;;;;5073659;28;20955;-80
2021/12/02 08:58:56;;;;;;;4.93;1.37;;;9.10;98.50;;;;;;5082492;28;20280;-81
2021/12/02 09:01:23;;;;;;;6.00;2.00;;;9.30;98.20;;;;;;5082086;28;20247;-80
2021/12/02 09:03:50;;;;;;;7.37;1.70;;;9.50;97.90;;;;;;5082736;28;20305;-80
2021/12/02 09:06:21;;;;;;;6.27;1.50;;;9.60;97.90;;;;;;5082687;28;20219;-80
2021/12/02 09:08:50;;;;;;;6.37;1.60;;;9.60;96.60;;;;;;5081887;28;20222;-81
2021/12/02 09:11:18;;;;;;;3.70;1.33;;;9.80;97.00;;;;;;5084723;28;20215;-81
2021/12/02 09:13:44;;;;;;;4.53;1.40;;;9.90;96.90;;;;;;5080845;28;20223;-80
2021/12/02 09:16:12;;;;;;;6.83;1.50;;;10.00;97.20;;;;;;5086781;28;20210;-81
2021/12/02 09:18:39;;;;;;;3.70;1.33;;;10.00;96.30;;;;;;5074620;28;20247;-80
2021/12/02 09:21:06;;;;;;;4.97;1.53;;;10.20;96.50;;;;;;5066748;28;20258;-80
2021/12/02 09:23:33;;;;;;;6.67;1.30;;;10.30;96.10;;;;;;5085769;28;20228;-81
2021/12/02 09:26:02;;;;;;;6.00;1.83;;;10.40;96.30;;;;;;5061815;28;20228;-80
2021/12/02 09:28:29;;;;;;;5.87;1.40;;;10.40;96.20;;;;;;5087346;28;20211;-80
2021/12/02 09:30:55;;;;;;;2.87;1.10;;;10.50;96.30;;;;;;5070235;28;20254;-80
2021/12/02 09:33:22;;;;;;;7.73;1.70;;;10.50;96.00;;;;;;5071136;28;20255;-82
2021/12/02 09:35:49;;;;;;;4.60;1.30;;;10.60;95.40;;;;;;5069110;28;20231;-80
2021/12/02 09:38:16;;;;;;;4.33;1.50;;;10.60;95.60;;;;;;5089425;28;20220;-80
2021/12/02 09:40:44;;;;;;;5.33;1.40;;;10.60;95.40;;;;;;5082199;28;20209;-80
2021/12/02 09:43:14;;;;;;;4.27;1.30;;;10.60;95.20;;;;;;5068308;28;20228;-80
2021/12/02 09:45:42;;;;;;;5.90;1.60;;;10.70;95.40;;;;;;5067004;28;20307;-80
2021/12/02 09:48:10;;;;;;;4.00;1.73;;;10.70;95.40;;;;;;5081062;28;20634;-80
2021/12/02 09:50:46;;;;;;;3.33;1.27;;;10.70;94.80;;;;;;5078291;28;20221;-80
2021/12/02 09:53:17;;;;;;;4.77;1.43;;;10.60;94.70;;;;;;5079994;28;20266;-80
2021/12/02 09:55:48;;;;;;;6.80;1.60;;;10.50;94.90;;;;;;5089552;28;20255;-80
2021/12/02 09:58:22;;;;;;;4.97;1.50;;;10.50;94.60;;;;;;5090937;28;20256;-81
2021/12/02 10:00:53;;;;;;;5.13;1.67;;;10.50;94.80;;;;;;5090800;28;20212;-80
2021/12/02 10:03:26;;;;;;;4.53;1.40;;;10.50;94.50;;;;;;5075842;28;20217;-80
2021/12/02 10:06:01;;;;;;;4.10;1.53;;;10.50;94.60;;;;;;5085295;28;20228;-80
2021/12/02 10:08:33;;;;;;;4.87;1.67;;;10.50;94.30;;;;;;5075136;28;20223;-80
2021/12/02 10:11:01;;;;;;;5.60;1.40;;;10.50;94.30;;;;;;5071626;28;20319;-80
2021/12/02 10:13:39;;;;;;;3.93;1.50;;;10.40;94.30;;;;;;5087267;28;20219;-80
2021/12/02 10:16:16;;;;;;;4.70;1.13;;;10.40;94.20;;;;;;5078976;28;20964;-80
2021/12/02 10:18:57;;;;;;;5.80;1.60;;;10.40;94.40;;;;;;5084376;28;20922;-80
2021/12/02 10:21:30;;;;;;;4.90;1.40;;;10.40;94.30;;;;;;5070968;28;20304;-80
2021/12/02 10:24:01;;;;;;;6.63;2.23;;;10.40;94.30;;;;;;5068473;28;20824;-80
2021/12/02 10:26:28;;;;;;;5.03;1.50;;;10.40;93.90;;;;;;5064007;28;20232;-80
2021/12/02 10:28:56;;;;;;;5.60;1.57;;;10.40;94.00;;;;;;5088856;28;20232;-80
2021/12/02 10:31:26;;;;;;;4.43;1.40;;;10.40;93.40;;;;;;5089044;28;20256;-80
2021/12/02 10:33:56;;;;;;;5.53;1.40;;;10.30;93.40;;;;;;5084310;28;20694;-80
2021/12/02 10:36:27;;;;;;;4.33;1.27;;;10.20;93.60;;;;;;5080692;28;20624;-80
2021/12/02 10:38:57;;;;;;;3.67;1.40;;;10.20;93.30;;;;;;5069407;28;20220;-80
2021/12/02 10:41:27;;;;;;;7.33;1.47;;;10.10;93.50;;;;;;5076265;28;20213;-80
2021/12/02 10:44:09;;;;;;;2.30;1.13;;;10.10;93.60;;;;;;5071252;28;20221;-79
2021/12/02 10:46:38;;;;;;;5.70;1.60;;;10.00;93.20;;;;;;5081488;28;20217;-79
2021/12/02 10:49:06;;;;;;;5.67;1.60;;;9.90;93.40;;;;;;5089560;28;20222;-80
2021/12/02 10:51:43;;;;;;;4.30;1.20;;;9.90;93.80;;;;;;5069451;28;20226;-80
2021/12/02 10:54:13;;;;;;;5.13;1.57;;;9.90;93.50;;;;;;5080230;28;20266;-80
2021/12/02 10:56:42;;;;;;;6.70;1.80;;;9.90;93.50;;;;;;5088284;28;20220;-80
2021/12/02 10:59:45;;;;;;;5.37;1.67;;;9.80;93.60;;;;;;5079671;28;20229;-80
2021/12/02 11:02:24;;;;;;;7.93;1.40;;;9.90;93.60;;;;;;5004989;28;20318;-80
2021/12/02 11:04:54;;;;;;;4.17;1.20;;;9.80;93.30;;;;;;4987831;28;20237;-80
2021/12/02 11:07:24;;;;;;;5.70;1.47;;;9.80;93.00;;;;;;5053358;28;20223;-80
2021/12/02 11:09:52;;;;;;;3.30;1.30;;;9.80;93.40;;;;;;5079255;28;20232;-80
2021/12/02 11:12:22;;;;;;;4.30;1.27;;;9.80;93.30;;;;;;5073921;28;20228;-80
2021/12/02 11:15:09;;;;;;;4.27;0.93;;;9.80;93.00;;;;;;5067081;28;20562;-80
2021/12/02 11:17:41;;;;;;;3.90;1.27;;;9.80;92.40;;;;;;5071429;28;20225;-80
2021/12/02 11:20:10;;;;;;;3.97;1.33;;;9.80;93.10;;;;;;5087955;28;20239;-80
2021/12/02 11:22:42;;;;;;;7.07;1.37;;;9.80;93.40;;;;;;5086640;28;20204;-82
2021/12/02 11:25:11;;;;;;;7.43;1.53;;;9.80;92.70;;;;;;5051458;28;20231;-80
2021/12/02 11:27:40;;;;;;;5.10;1.43;;;9.80;93.30;;;;;;5075136;28;20278;-81
2021/12/02 11:30:12;;;;;;;5.13;1.40;;;9.80;93.10;;;;;;5081560;28;20706;-81
2021/12/02 11:32:45;;;;;;;3.87;1.37;;;9.80;93.10;;;;;;5080359;28;20317;-80
2021/12/02 11:35:18;;;;;;;3.90;1.37;;;9.80;92.60;;;;;;5101734;28;20922;-81
2021/12/02 11:37:48;;;;;;;4.33;1.40;;;9.80;92.90;;;;;;5081546;28;20295;-80
2021/12/02 11:40:18;;;;;;;3.57;1.40;;;9.70;92.80;;;;;;5079951;28;20432;-81
2021/12/02 11:42:46;;;;;;;4.60;1.37;;;9.60;92.40;;;;;;5100874;28;20368;-81
2021/12/02 11:45:15;;;;;;;6.20;1.47;;;9.40;92.20;;;;;;5098591;28;20701;-80
2021/12/02 11:47:42;;;;;;;3.93;1.30;;;9.30;92.20;;;;;;5063630;28;20282;-81
2021/12/02 11:50:12;;;;;;;3.03;1.17;;;9.10;92.20;;;;;;5062849;28;20303;-81
2021/12/02 11:52:40;;;;;;;6.67;1.77;;;8.90;92.00;;;;;;5075370;28;20226;-80
2021/12/02 11:55:10;;;;;;;5.40;1.50;;;8.60;91.90;;;;;;5082284;28;20305;-81
2021/12/02 11:57:37;;;;;;;4.20;1.30;;;8.40;92.20;;;;;;5072398;28;20255;-79
2021/12/02 12:00:06;;;;;;;5.63;1.30;;;8.10;92.30;;;;;;5094268;28;20706;-78
2021/12/02 12:02:47;;;;;;;4.47;1.17;;;8.00;92.50;;;;;;5092364;28;20214;-78
2021/12/02 12:05:16;;;;;;;6.13;1.33;;;7.70;92.40;;;;;;5082773;28;20224;-85
2021/12/02 12:07:47;;;;;;;5.90;1.60;;;7.60;92.80;;;;;;5052409;28;20231;-85
2021/12/02 12:10:17;;;;;;;5.37;1.07;;;7.40;93.00;;;;;;5064468;28;20226;-84
2021/12/02 12:12:44;;;;;;;4.27;1.60;;;7.30;93.30;;;;;;5067605;28;20244;-85
2021/12/02 12:15:31;;;;;;;4.97;1.17;;;7.20;93.40;;;;;;5071893;28;20220;-86
2021/12/02 12:17:59;;;;;;;5.00;1.50;;;7.00;93.40;;;;;;5063748;28;20224;-87
2021/12/02 12:20:51;;;;;;;4.80;1.40;;;7.00;93.60;;;;;;5071269;28;20285;-87
2021/12/02 12:23:46;;;;;;;3.67;1.37;;;6.90;93.60;;;;;;5075797;28;20222;-87
2021/12/02 12:26:33;;;;;;;3.47;1.23;;;6.80;93.90;;;;;;5088370;28;20326;-87
2021/12/02 12:29:29;;;;;;;5.73;1.73;;;6.70;94.10;;;;;;5062467;28;20222;-88
2021/12/02 12:35:32;;;;;;;3.70;1.50;;;6.60;94.40;;;;;;5066151;28;20216;-86
2021/12/02 12:38:08;;;;;;;5.40;1.50;;;6.60;94.40;;;;;;5072075;28;20230;-79
2021/12/02 12:40:45;;;;;;;3.20;1.20;;;6.60;94.80;;;;;;5072260;28;20317;-79
2021/12/02 12:43:34;;;;;;;5.70;1.53;;;6.60;94.60;;;;;;5071589;28;20638;-79
2021/12/02 12:46:16;;;;;;;5.03;1.43;;;6.50;94.60;;;;;;5076697;28;20683;-79
2021/12/02 12:48:44;;;;;;;5.80;2.00;;;6.50;94.80;;;;;;5067492;28;20229;-79
2021/12/02 12:51:26;;;;;;;8.67;2.57;;;6.50;95.00;;;;;;5068298;28;20693;-79
2021/12/02 12:53:55;;;;;;;3.00;1.13;;;6.60;95.30;;;;;;5077576;28;20218;-79
2021/12/02 12:56:34;;;;;;;6.93;1.90;;;6.70;95.50;;;;;;5056789;28;20225;-80
2021/12/02 12:59:19;;;;;;;4.93;1.20;;;6.80;95.40;;;;;;5068076;28;20227;-79
2021/12/02 13:01:58;;;;;;;4.67;1.77;;;6.90;95.10;;;;;;5067293;28;20240;-79
2021/12/02 13:04:28;;;;;;;6.07;1.47;;;6.90;94.90;;;;;;5052710;28;20271;-79
2021/12/02 13:07:13;;;;;;;4.40;1.67;;;7.00;94.90;;;;;;5070493;28;20226;-79
2021/12/02 13:09:54;;;;;;;5.97;1.70;;;6.90;94.80;;;;;;5087801;28;20268;-79
2021/12/02 13:12:27;;;;;;;4.37;1.70;;;6.90;94.80;;;;;;5070675;28;20257;-79
2021/12/02 13:14:55;;;;;;;5.93;1.90;;;6.80;94.90;;;;;;5070243;28;20213;-79